sensor_id;sensor_type;location;lat;lon;timestamp;pressure;altitude;pressure_sealevel;temperature;humidity
70982;BME280;58640;51.320;9.456;2023-04-06T00:00:23;99639.41;;;0.81;68.54
70982;BME280;58640;51.320;9.456;2023-04-06T00:02:49;99634.72;;;0.84;68.39
70982;BME280;58640;51.320;9.456;2023-04-06T00:05:14;99634.22;;;0.79;68.15
70982;BME280;58640;51.320;9.456;2023-04-06T00:07:40;99633.34;;;0.79;68.26
70982;BME280;58640;51.320;9.456;2023-04-06T00:10:06;99626.25;;;0.79;68.00
70982;BME280;58640;51.320;9.456;2023-04-06T00:12:31;99623.00;;;0.76;69.06
70982;BME280;58640;51.320;9.456;2023-04-06T00:14:57;99631.25;;;0.71;68.87
70982;BME280;58640;51.320;9.456;2023-04-06T00:17:22;99627.25;;;0.66;69.27
70982;BME280;58640;51.320;9.456;2023-04-06T00:19:47;99623.25;;;0.60;69.87
70982;BME280;58640;51.320;9.456;2023-04-06T00:22:13;99615.53;;;0.57;69.20
70982;BME280;58640;51.320;9.456;2023-04-06T00:24:38;99614.88;;;0.54;69.43
70982;BME280;58640;51.320;9.456;2023-04-06T00:27:03;99613.69;;;0.58;69.53
70982;BME280;58640;51.320;9.456;2023-04-06T00:29:29;99604.31;;;0.54;69.64
70982;BME280;58640;51.320;9.456;2023-04-06T00:31:55;99601.88;;;0.51;69.49
70982;BME280;58640;51.320;9.456;2023-04-06T00:34:20;99608.22;;;0.48;69.82
70982;BME280;58640;51.320;9.456;2023-04-06T00:36:46;99600.59;;;0.44;70.03
70982;BME280;58640;51.320;9.456;2023-04-06T00:39:11;99600.16;;;0.50;69.61
70982;BME280;58640;51.320;9.456;2023-04-06T00:41:36;99599.03;;;0.41;70.78
70982;BME280;58640;51.320;9.456;2023-04-06T00:44:02;99594.69;;;0.40;70.78
70982;BME280;58640;51.320;9.456;2023-04-06T00:46:28;99599.16;;;0.27;71.17
70982;BME280;58640;51.320;9.456;2023-04-06T00:48:53;99599.06;;;0.29;70.90
70982;BME280;58640;51.320;9.456;2023-04-06T00:51:18;99588.78;;;0.24;71.10
70982;BME280;58640;51.320;9.456;2023-04-06T00:53:44;99587.94;;;0.36;71.10
70982;BME280;58640;51.320;9.456;2023-04-06T00:56:10;99588.66;;;0.26;71.48
70982;BME280;58640;51.320;9.456;2023-04-06T00:58:35;99583.94;;;0.18;72.41
70982;BME280;58640;51.320;9.456;2023-04-06T01:01:03;99575.06;;;0.19;72.29
70982;BME280;58640;51.320;9.456;2023-04-06T01:03:29;99572.91;;;0.24;71.79
70982;BME280;58640;51.320;9.456;2023-04-06T01:05:54;99575.13;;;0.18;72.36
70982;BME280;58640;51.320;9.456;2023-04-06T01:08:23;99573.34;;;0.18;72.74
70982;BME280;58640;51.320;9.456;2023-04-06T01:10:49;99567.00;;;0.08;73.39
70982;BME280;58640;51.320;9.456;2023-04-06T01:13:14;99569.03;;;0.17;72.77
70982;BME280;58640;51.320;9.456;2023-04-06T01:15:40;99566.28;;;0.06;73.58
70982;BME280;58640;51.320;9.456;2023-04-06T01:18:08;99562.91;;;0.04;73.64
70982;BME280;58640;51.320;9.456;2023-04-06T01:20:35;99558.88;;;-0.02;74.33
70982;BME280;58640;51.320;9.456;2023-04-06T01:23:00;99554.09;;;0.03;73.70
70982;BME280;58640;51.320;9.456;2023-04-06T01:25:26;99561.22;;;0.03;73.52
70982;BME280;58640;51.320;9.456;2023-04-06T01:27:51;99554.97;;;-0.09;74.92
70982;BME280;58640;51.320;9.456;2023-04-06T01:30:16;99553.25;;;-0.10;74.53
70982;BME280;58640;51.320;9.456;2023-04-06T01:32:42;99561.13;;;-0.08;74.56
70982;BME280;58640;51.320;9.456;2023-04-06T01:35:08;99552.88;;;-0.16;75.25
70982;BME280;58640;51.320;9.456;2023-04-06T01:37:33;99550.00;;;-0.13;75.33
70982;BME280;58640;51.320;9.456;2023-04-06T01:39:59;99556.13;;;-0.13;75.38
70982;BME280;58640;51.320;9.456;2023-04-06T01:42:25;99554.66;;;-0.04;74.49
70982;BME280;58640;51.320;9.456;2023-04-06T01:44:51;99547.03;;;-0.09;75.33
70982;BME280;58640;51.320;9.456;2023-04-06T01:47:16;99552.22;;;-0.20;76.06
70982;BME280;58640;51.320;9.456;2023-04-06T01:49:42;99553.59;;;-0.27;76.34
70982;BME280;58640;51.320;9.456;2023-04-06T01:52:07;99556.03;;;-0.24;75.54
70982;BME280;58640;51.320;9.456;2023-04-06T01:54:32;99556.56;;;-0.19;75.58
70982;BME280;58640;51.320;9.456;2023-04-06T01:56:58;99555.19;;;-0.24;75.42
70982;BME280;58640;51.320;9.456;2023-04-06T01:59:23;99547.28;;;-0.24;75.20
70982;BME280;58640;51.320;9.456;2023-04-06T02:01:49;99541.97;;;-0.24;75.69
70982;BME280;58640;51.320;9.456;2023-04-06T02:04:15;99550.53;;;-0.33;76.36
70982;BME280;58640;51.320;9.456;2023-04-06T02:06:40;99548.75;;;-0.33;75.98
70982;BME280;58640;51.320;9.456;2023-04-06T02:09:05;99546.09;;;-0.33;76.26
70982;BME280;58640;51.320;9.456;2023-04-06T02:11:31;99543.34;;;-0.31;75.94
70982;BME280;58640;51.320;9.456;2023-04-06T02:13:57;99540.81;;;-0.33;75.98
70982;BME280;58640;51.320;9.456;2023-04-06T02:16:22;99539.94;;;-0.33;75.92
70982;BME280;58640;51.320;9.456;2023-04-06T02:18:48;99536.16;;;-0.42;76.13
70982;BME280;58640;51.320;9.456;2023-04-06T02:21:14;99552.31;;;-0.46;76.54
70982;BME280;58640;51.320;9.456;2023-04-06T02:23:42;99546.72;;;-0.42;75.85
70982;BME280;58640;51.320;9.456;2023-04-06T02:26:07;99544.41;;;-0.34;75.81
70982;BME280;58640;51.320;9.456;2023-04-06T02:28:33;99538.59;;;-0.39;75.80
70982;BME280;58640;51.320;9.456;2023-04-06T02:30:58;99548.19;;;-0.50;76.35
70982;BME280;58640;51.320;9.456;2023-04-06T02:33:23;99542.06;;;-0.51;76.91
70982;BME280;58640;51.320;9.456;2023-04-06T02:35:49;99543.88;;;-0.51;76.90
70982;BME280;58640;51.320;9.456;2023-04-06T02:38:14;99546.81;;;-0.56;77.34
70982;BME280;58640;51.320;9.456;2023-04-06T02:40:40;99545.97;;;-0.44;76.76
70982;BME280;58640;51.320;9.456;2023-04-06T02:43:05;99546.31;;;-0.48;76.97
70982;BME280;58640;51.320;9.456;2023-04-06T02:45:31;99549.44;;;-0.56;77.19
70982;BME280;58640;51.320;9.456;2023-04-06T02:47:56;99551.47;;;-0.59;77.46
70982;BME280;58640;51.320;9.456;2023-04-06T02:50:21;99548.28;;;-0.64;77.88
70982;BME280;58640;51.320;9.456;2023-04-06T02:52:47;99546.81;;;-0.56;77.80
70982;BME280;58640;51.320;9.456;2023-04-06T02:55:12;99547.53;;;-0.66;77.58
70982;BME280;58640;51.320;9.456;2023-04-06T02:57:37;99544.69;;;-0.51;77.06
70982;BME280;58640;51.320;9.456;2023-04-06T03:00:03;99544.06;;;-0.54;77.15
70982;BME280;58640;51.320;9.456;2023-04-06T03:02:28;99539.81;;;-0.69;78.06
70982;BME280;58640;51.320;9.456;2023-04-06T03:04:54;99540.13;;;-0.74;78.44
70982;BME280;58640;51.320;9.456;2023-04-06T03:07:19;99539.63;;;-0.66;77.88
70982;BME280;58640;51.320;9.456;2023-04-06T03:09:45;99543.50;;;-0.72;78.12
70982;BME280;58640;51.320;9.456;2023-04-06T03:12:10;99544.34;;;-0.84;78.77
70982;BME280;58640;51.320;9.456;2023-04-06T03:14:35;99542.09;;;-0.90;79.21
70982;BME280;58640;51.320;9.456;2023-04-06T03:17:01;99542.53;;;-0.83;79.29
70982;BME280;58640;51.320;9.456;2023-04-06T03:19:27;99547.19;;;-0.87;78.95
70982;BME280;58640;51.320;9.456;2023-04-06T03:21:52;99542.22;;;-0.91;79.51
70982;BME280;58640;51.320;9.456;2023-04-06T03:24:18;99537.84;;;-0.92;80.01
70982;BME280;58640;51.320;9.456;2023-04-06T03:26:43;99541.47;;;-0.93;79.51
70982;BME280;58640;51.320;9.456;2023-04-06T03:29:08;99539.13;;;-0.98;79.69
70982;BME280;58640;51.320;9.456;2023-04-06T03:31:34;99542.00;;;-0.88;79.55
70982;BME280;58640;51.320;9.456;2023-04-06T03:33:59;99538.81;;;-0.93;79.48
70982;BME280;58640;51.320;9.456;2023-04-06T03:36:24;99541.03;;;-0.87;79.47
70982;BME280;58640;51.320;9.456;2023-04-06T03:38:51;99539.28;;;-0.74;79.30
70982;BME280;58640;51.320;9.456;2023-04-06T03:41:18;99537.69;;;-0.77;79.44
70982;BME280;58640;51.320;9.456;2023-04-06T03:43:44;99537.25;;;-0.83;79.78
70982;BME280;58640;51.320;9.456;2023-04-06T03:46:10;99538.09;;;-0.83;79.71
70982;BME280;58640;51.320;9.456;2023-04-06T03:48:35;99541.03;;;-0.87;79.97
70982;BME280;58640;51.320;9.456;2023-04-06T03:51:01;99541.03;;;-0.87;80.16
70982;BME280;58640;51.320;9.456;2023-04-06T03:53:26;99534.41;;;-0.80;80.08
70982;BME280;58640;51.320;9.456;2023-04-06T03:55:52;99543.28;;;-0.81;80.36
70982;BME280;58640;51.320;9.456;2023-04-06T03:58:17;99544.53;;;-0.87;80.28
70982;BME280;58640;51.320;9.456;2023-04-06T04:00:42;99553.09;;;-0.83;80.31
70982;BME280;58640;51.320;9.456;2023-04-06T04:03:08;99550.78;;;-0.88;80.36
70982;BME280;58640;51.320;9.456;2023-04-06T04:05:33;99551.72;;;-0.89;80.58
70982;BME280;58640;51.320;9.456;2023-04-06T04:07:58;99547.28;;;-0.88;80.61
70982;BME280;58640;51.320;9.456;2023-04-06T04:10:24;99552.88;;;-0.93;80.73
70982;BME280;58640;51.320;9.456;2023-04-06T04:12:49;99559.09;;;-0.81;79.66
70982;BME280;58640;51.320;9.456;2023-04-06T04:15:15;99559.72;;;-0.90;81.07
70982;BME280;58640;51.320;9.456;2023-04-06T04:17:40;99562.22;;;-1.01;81.65
70982;BME280;58640;51.320;9.456;2023-04-06T04:20:06;99559.50;;;-1.00;80.80
70982;BME280;58640;51.320;9.456;2023-04-06T04:22:32;99563.28;;;-1.04;81.19
70982;BME280;58640;51.320;9.456;2023-04-06T04:24:58;99558.63;;;-1.00;80.89
70982;BME280;58640;51.320;9.456;2023-04-06T04:29:53;99565.59;;;-1.12;81.39
70982;BME280;58640;51.320;9.456;2023-04-06T04:32:18;99567.69;;;-1.17;81.33
70982;BME280;58640;51.320;9.456;2023-04-06T04:34:43;99564.38;;;-1.20;81.87
70982;BME280;58640;51.320;9.456;2023-04-06T04:37:09;99556.47;;;-1.20;81.95
70982;BME280;58640;51.320;9.456;2023-04-06T04:39:34;99561.63;;;-1.19;81.79
70982;BME280;58640;51.320;9.456;2023-04-06T04:42:00;99566.06;;;-1.19;81.82
70982;BME280;58640;51.320;9.456;2023-04-06T04:44:25;99568.81;;;-1.21;81.87
70982;BME280;58640;51.320;9.456;2023-04-06T04:46:51;99570.41;;;-1.18;82.89
70982;BME280;58640;51.320;9.456;2023-04-06T04:49:16;99568.44;;;-1.15;82.43
70982;BME280;58640;51.320;9.456;2023-04-06T04:51:41;99570.88;;;-1.12;82.41
70982;BME280;58640;51.320;9.456;2023-04-06T04:54:07;99575.19;;;-1.11;83.23
70982;BME280;58640;51.320;9.456;2023-04-06T04:56:32;99571.47;;;-1.08;82.30
70982;BME280;58640;51.320;9.456;2023-04-06T04:58:57;99569.06;;;-1.11;82.69
70982;BME280;58640;51.320;9.456;2023-04-06T05:01:23;99569.41;;;-1.03;82.34
70982;BME280;58640;51.320;9.456;2023-04-06T05:03:48;99577.75;;;-0.97;82.02
70982;BME280;58640;51.320;9.456;2023-04-06T05:06:14;99568.47;;;-1.02;82.31
70982;BME280;58640;51.320;9.456;2023-04-06T05:08:40;99573.09;;;-1.06;82.52
70982;BME280;58640;51.320;9.456;2023-04-06T05:11:06;99571.94;;;-1.02;82.74
70982;BME280;58640;51.320;9.456;2023-04-06T05:13:31;99570.72;;;-0.84;80.70
70982;BME280;58640;51.320;9.456;2023-04-06T05:15:56;99575.16;;;-0.84;81.02
70982;BME280;58640;51.320;9.456;2023-04-06T05:18:22;99573.94;;;-0.79;81.09
70982;BME280;58640;51.320;9.456;2023-04-06T05:20:47;99581.53;;;-0.74;80.94
70982;BME280;58640;51.320;9.456;2023-04-06T05:23:12;99573.19;;;-0.68;80.02
70982;BME280;58640;51.320;9.456;2023-04-06T05:25:38;99570.41;;;-0.53;79.25
70982;BME280;58640;51.320;9.456;2023-04-06T05:28:03;99578.16;;;-0.64;80.29
70982;BME280;58640;51.320;9.456;2023-04-06T05:30:28;99563.41;;;-0.54;79.17
70982;BME280;58640;51.320;9.456;2023-04-06T05:32:54;99574.19;;;-0.57;79.63
70982;BME280;58640;51.320;9.456;2023-04-06T05:35:20;99565.50;;;-0.46;79.44
70982;BME280;58640;51.320;9.456;2023-04-06T05:37:45;99567.78;;;-0.40;78.69
70982;BME280;58640;51.320;9.456;2023-04-06T05:40:11;99570.50;;;-0.42;78.86
70982;BME280;58640;51.320;9.456;2023-04-06T05:42:38;99570.41;;;-0.28;78.58
70982;BME280;58640;51.320;9.456;2023-04-06T05:45:04;99568.91;;;-0.19;77.89
70982;BME280;58640;51.320;9.456;2023-04-06T05:47:30;99567.44;;;-0.23;77.84
70982;BME280;58640;51.320;9.456;2023-04-06T05:49:55;99574.03;;;-0.16;77.52
70982;BME280;58640;51.320;9.456;2023-04-06T05:52:20;99569.88;;;0.05;76.15
70982;BME280;58640;51.320;9.456;2023-04-06T05:54:46;99572.63;;;0.03;76.68
70982;BME280;58640;51.320;9.456;2023-04-06T05:57:11;99571.69;;;0.05;76.78
70982;BME280;58640;51.320;9.456;2023-04-06T05:59:37;99572.59;;;0.16;76.79
70982;BME280;58640;51.320;9.456;2023-04-06T06:02:02;99574.41;;;0.28;75.82
70982;BME280;58640;51.320;9.456;2023-04-06T06:04:27;99572.41;;;0.19;76.10
70982;BME280;58640;51.320;9.456;2023-04-06T06:06:53;99571.44;;;0.20;76.28
70982;BME280;58640;51.320;9.456;2023-04-06T06:09:18;99576.16;;;0.40;75.45
70982;BME280;58640;51.320;9.456;2023-04-06T06:11:43;99572.66;;;0.52;75.20
70982;BME280;58640;51.320;9.456;2023-04-06T06:14:09;99574.41;;;0.64;74.69
70982;BME280;58640;51.320;9.456;2023-04-06T06:16:34;99575.63;;;0.84;73.90
70982;BME280;58640;51.320;9.456;2023-04-06T06:19:00;99582.59;;;0.85;73.21
70982;BME280;58640;51.320;9.456;2023-04-06T06:21:25;99574.72;;;0.96;72.88
70982;BME280;58640;51.320;9.456;2023-04-06T06:23:51;99573.22;;;1.04;72.52
70982;BME280;58640;51.320;9.456;2023-04-06T06:26:19;99573.06;;;1.29;72.18
70982;BME280;58640;51.320;9.456;2023-04-06T06:28:44;99565.66;;;1.45;71.14
70982;BME280;58640;51.320;9.456;2023-04-06T06:31:09;99572.81;;;1.56;70.64
70982;BME280;58640;51.320;9.456;2023-04-06T06:33:35;99570.69;;;1.72;69.55
70982;BME280;58640;51.320;9.456;2023-04-06T06:36:00;99571.03;;;1.68;69.48
70982;BME280;58640;51.320;9.456;2023-04-06T06:38:26;99573.75;;;2.23;67.86
70982;BME280;58640;51.320;9.456;2023-04-06T06:40:52;99572.38;;;2.83;66.11
70982;BME280;58640;51.320;9.456;2023-04-06T06:43:17;99578.72;;;3.14;64.00
70982;BME280;58640;51.320;9.456;2023-04-06T06:45:43;99572.34;;;3.58;62.40
70982;BME280;58640;51.320;9.456;2023-04-06T06:48:09;99560.22;;;3.85;61.33
70982;BME280;58640;51.320;9.456;2023-04-06T06:50:34;99565.94;;;4.31;59.13
70982;BME280;58640;51.320;9.456;2023-04-06T06:52:59;99563.06;;;4.53;58.40
70982;BME280;58640;51.320;9.456;2023-04-06T06:55:25;99573.72;;;4.93;57.13
70982;BME280;58640;51.320;9.456;2023-04-06T06:57:52;99565.75;;;5.22;56.19
70982;BME280;58640;51.320;9.456;2023-04-06T07:00:18;99567.31;;;5.91;55.27
70982;BME280;58640;51.320;9.456;2023-04-06T07:02:46;99559.13;;;6.75;52.38
70982;BME280;58640;51.320;9.456;2023-04-06T07:05:12;99568.97;;;6.57;51.69
70982;BME280;58640;51.320;9.456;2023-04-06T07:07:37;99568.34;;;6.63;51.77
70982;BME280;58640;51.320;9.456;2023-04-06T07:10:02;99560.78;;;7.30;50.47
70982;BME280;58640;51.320;9.456;2023-04-06T07:12:28;99563.75;;;7.10;49.83
70982;BME280;58640;51.320;9.456;2023-04-06T07:14:53;99559.38;;;7.44;47.85
70982;BME280;58640;51.320;9.456;2023-04-06T07:17:19;99555.72;;;8.57;45.62
70982;BME280;58640;51.320;9.456;2023-04-06T07:19:44;99549.31;;;10.76;39.87
70982;BME280;58640;51.320;9.456;2023-04-06T07:22:10;99556.00;;;10.42;39.41
70982;BME280;58640;51.320;9.456;2023-04-06T07:24:36;99559.22;;;9.81;40.08
70982;BME280;58640;51.320;9.456;2023-04-06T07:27:01;99558.38;;;8.90;42.18
70982;BME280;58640;51.320;9.456;2023-04-06T07:29:27;99562.72;;;8.50;42.51
70982;BME280;58640;51.320;9.456;2023-04-06T07:31:53;99560.06;;;8.92;42.15
70982;BME280;58640;51.320;9.456;2023-04-06T07:34:18;99558.47;;;8.73;41.19
70982;BME280;58640;51.320;9.456;2023-04-06T07:36:44;99563.09;;;8.88;41.44
70982;BME280;58640;51.320;9.456;2023-04-06T07:39:09;99558.44;;;9.15;41.41
70982;BME280;58640;51.320;9.456;2023-04-06T07:41:35;99550.47;;;9.47;40.61
70982;BME280;58640;51.320;9.456;2023-04-06T07:44:01;99552.16;;;9.88;39.77
70982;BME280;58640;51.320;9.456;2023-04-06T07:46:26;99555.88;;;9.95;39.10
70982;BME280;58640;51.320;9.456;2023-04-06T07:48:52;99560.00;;;10.54;36.85
70982;BME280;58640;51.320;9.456;2023-04-06T07:51:17;99557.88;;;9.61;39.26
70982;BME280;58640;51.320;9.456;2023-04-06T07:53:44;99548.66;;;10.03;37.52
70982;BME280;58640;51.320;9.456;2023-04-06T07:56:09;99547.13;;;9.77;39.19
70982;BME280;58640;51.320;9.456;2023-04-06T07:58:35;99536.38;;;10.25;38.60
70982;BME280;58640;51.320;9.456;2023-04-06T08:01:01;99544.38;;;10.49;38.29
70982;BME280;58640;51.320;9.456;2023-04-06T08:03:26;99544.63;;;10.78;38.15
70982;BME280;58640;51.320;9.456;2023-04-06T08:05:52;99545.91;;;10.90;37.14
70982;BME280;58640;51.320;9.456;2023-04-06T08:08:18;99535.66;;;10.39;37.66
70982;BME280;58640;51.320;9.456;2023-04-06T08:10:43;99537.16;;;10.50;37.26
70982;BME280;58640;51.320;9.456;2023-04-06T08:13:09;99539.28;;;10.70;37.32
70982;BME280;58640;51.320;9.456;2023-04-06T08:15:34;99545.06;;;11.20;36.10
70982;BME280;58640;51.320;9.456;2023-04-06T08:17:59;99540.72;;;10.81;36.14
70982;BME280;58640;51.320;9.456;2023-04-06T08:20:25;99543.44;;;10.73;36.66
70982;BME280;58640;51.320;9.456;2023-04-06T08:22:51;99540.59;;;10.74;37.53
70982;BME280;58640;51.320;9.456;2023-04-06T08:25:16;99536.88;;;11.36;35.66
70982;BME280;58640;51.320;9.456;2023-04-06T08:27:42;99533.72;;;11.55;35.88
70982;BME280;58640;51.320;9.456;2023-04-06T08:30:07;99530.75;;;11.28;34.56
70982;BME280;58640;51.320;9.456;2023-04-06T08:32:33;99536.25;;;11.57;35.32
70982;BME280;58640;51.320;9.456;2023-04-06T08:34:58;99540.34;;;11.98;34.64
70982;BME280;58640;51.320;9.456;2023-04-06T08:37:24;99524.25;;;12.05;33.16
70982;BME280;58640;51.320;9.456;2023-04-06T08:39:50;99526.56;;;11.93;33.82
70982;BME280;58640;51.320;9.456;2023-04-06T08:42:20;99528.00;;;12.18;34.60
70982;BME280;58640;51.320;9.456;2023-04-06T08:44:48;99530.00;;;11.64;35.38
70982;BME280;58640;51.320;9.456;2023-04-06T08:47:13;99526.31;;;11.35;36.42
70982;BME280;58640;51.320;9.456;2023-04-06T08:49:40;99524.09;;;11.38;35.63
70982;BME280;58640;51.320;9.456;2023-04-06T08:52:10;99524.13;;;12.50;33.71
70982;BME280;58640;51.320;9.456;2023-04-06T08:54:36;99524.19;;;12.42;35.41
70982;BME280;58640;51.320;9.456;2023-04-06T08:57:02;99516.91;;;11.76;35.67
70982;BME280;58640;51.320;9.456;2023-04-06T08:59:28;99518.06;;;12.19;33.86
70982;BME280;58640;51.320;9.456;2023-04-06T09:01:54;99521.84;;;12.10;33.99
70982;BME280;58640;51.320;9.456;2023-04-06T09:04:20;99528.06;;;12.10;33.70
70982;BME280;58640;51.320;9.456;2023-04-06T09:06:46;99527.75;;;12.57;33.33
70982;BME280;58640;51.320;9.456;2023-04-06T09:09:11;99523.19;;;12.43;34.51
70982;BME280;58640;51.320;9.456;2023-04-06T09:11:50;99524.78;;;12.66;34.31
70982;BME280;58640;51.320;9.456;2023-04-06T09:14:15;99525.59;;;12.81;33.56
70982;BME280;58640;51.320;9.456;2023-04-06T09:16:45;99529.13;;;12.67;31.93
70982;BME280;58640;51.320;9.456;2023-04-06T09:19:11;99520.44;;;13.15;31.76
70982;BME280;58640;51.320;9.456;2023-04-06T09:21:38;99531.78;;;13.26;32.67
70982;BME280;58640;51.320;9.456;2023-04-06T09:24:06;99520.28;;;13.02;32.78
70982;BME280;58640;51.320;9.456;2023-04-06T09:26:44;99517.78;;;13.01;32.07
70982;BME280;58640;51.320;9.456;2023-04-06T09:29:10;99515.13;;;13.85;32.01
70982;BME280;58640;51.320;9.456;2023-04-06T09:31:35;99518.28;;;13.89;30.74
70982;BME280;58640;51.320;9.456;2023-04-06T09:34:01;99520.38;;;13.45;30.33
70982;BME280;58640;51.320;9.456;2023-04-06T09:36:34;99517.53;;;13.53;29.97
70982;BME280;58640;51.320;9.456;2023-04-06T09:39:02;99508.84;;;13.36;32.15
70982;BME280;58640;51.320;9.456;2023-04-06T09:41:29;99506.34;;;13.77;31.40
70982;BME280;58640;51.320;9.456;2023-04-06T09:44:09;99504.44;;;13.98;29.46
70982;BME280;58640;51.320;9.456;2023-04-06T09:46:41;99511.44;;;13.65;30.10
70982;BME280;58640;51.320;9.456;2023-04-06T09:49:09;99507.09;;;13.29;31.36
70982;BME280;58640;51.320;9.456;2023-04-06T09:54:02;99506.16;;;13.57;30.74
70982;BME280;58640;51.320;9.456;2023-04-06T09:56:33;99500.75;;;13.78;31.78
70982;BME280;58640;51.320;9.456;2023-04-06T09:59:07;99497.16;;;13.99;31.83
70982;BME280;58640;51.320;9.456;2023-04-06T10:01:35;99497.28;;;14.12;30.45
70982;BME280;58640;51.320;9.456;2023-04-06T10:04:17;99492.91;;;14.38;31.18
70982;BME280;58640;51.320;9.456;2023-04-06T10:06:46;99488.13;;;14.13;29.95
70982;BME280;58640;51.320;9.456;2023-04-06T10:09:17;99488.63;;;14.23;30.11
70982;BME280;58640;51.320;9.456;2023-04-06T10:11:43;99484.13;;;13.81;30.57
70982;BME280;58640;51.320;9.456;2023-04-06T10:14:09;99487.28;;;13.43;31.83
70982;BME280;58640;51.320;9.456;2023-04-06T10:16:34;99480.53;;;13.53;32.43
70982;BME280;58640;51.320;9.456;2023-04-06T10:19:13;99486.19;;;13.58;30.87
70982;BME280;58640;51.320;9.456;2023-04-06T10:21:45;99476.47;;;13.64;29.98
70982;BME280;58640;51.320;9.456;2023-04-06T10:24:13;99474.28;;;13.74;30.70
70982;BME280;58640;51.320;9.456;2023-04-06T10:26:38;99472.75;;;13.65;32.93
70982;BME280;58640;51.320;9.456;2023-04-06T10:29:04;99471.66;;;13.59;33.75
70982;BME280;58640;51.320;9.456;2023-04-06T10:31:30;99480.38;;;13.82;31.37
70982;BME280;58640;51.320;9.456;2023-04-06T10:34:00;99474.03;;;13.96;29.75
70982;BME280;58640;51.320;9.456;2023-04-06T10:36:33;99465.38;;;14.07;29.71
70982;BME280;58640;51.320;9.456;2023-04-06T10:39:01;99470.06;;;13.92;32.97
70982;BME280;58640;51.320;9.456;2023-04-06T10:41:34;99469.69;;;14.23;31.75
70982;BME280;58640;51.320;9.456;2023-04-06T10:44:00;99462.75;;;13.86;32.35
70982;BME280;58640;51.320;9.456;2023-04-06T10:46:30;99462.91;;;14.33;32.75
70982;BME280;58640;51.320;9.456;2023-04-06T10:48:56;99465.56;;;14.27;31.55
70982;BME280;58640;51.320;9.456;2023-04-06T10:51:27;99465.16;;;14.30;32.91
70982;BME280;58640;51.320;9.456;2023-04-06T10:53:54;99463.09;;;14.32;32.16
70982;BME280;58640;51.320;9.456;2023-04-06T10:56:23;99471.06;;;14.40;31.03
70982;BME280;58640;51.320;9.456;2023-04-06T10:58:52;99468.97;;;13.87;31.60
70982;BME280;58640;51.320;9.456;2023-04-06T11:01:19;99459.81;;;14.15;32.43
70982;BME280;58640;51.320;9.456;2023-04-06T11:03:46;99459.47;;;13.70;32.63
70982;BME280;58640;51.320;9.456;2023-04-06T11:06:18;99466.34;;;13.72;33.15
70982;BME280;58640;51.320;9.456;2023-04-06T11:08:43;99455.84;;;13.56;33.36
70982;BME280;58640;51.320;9.456;2023-04-06T11:11:15;99459.78;;;13.18;33.35
70982;BME280;58640;51.320;9.456;2023-04-06T11:13:57;99463.81;;;13.43;33.37
70982;BME280;58640;51.320;9.456;2023-04-06T11:16:24;99447.09;;;13.82;31.78
70982;BME280;58640;51.320;9.456;2023-04-06T11:18:54;99449.34;;;13.51;34.07
70982;BME280;58640;51.320;9.456;2023-04-06T11:21:35;99448.72;;;13.76;32.72
70982;BME280;58640;51.320;9.456;2023-04-06T11:24:15;99444.50;;;13.46;33.20
70982;BME280;58640;51.320;9.456;2023-04-06T11:26:57;99442.47;;;13.76;31.31
70982;BME280;58640;51.320;9.456;2023-04-06T11:29:25;99436.25;;;13.75;33.22
70982;BME280;58640;51.320;9.456;2023-04-06T11:31:53;99435.97;;;13.43;32.47
70982;BME280;58640;51.320;9.456;2023-04-06T11:34:20;99432.59;;;13.62;33.09
70982;BME280;58640;51.320;9.456;2023-04-06T11:36:48;99433.97;;;13.79;33.81
70982;BME280;58640;51.320;9.456;2023-04-06T11:39:19;99425.22;;;13.49;32.50
70982;BME280;58640;51.320;9.456;2023-04-06T11:41:48;99424.31;;;13.42;32.04
70982;BME280;58640;51.320;9.456;2023-04-06T11:44:14;99425.19;;;13.07;33.85
70982;BME280;58640;51.320;9.456;2023-04-06T11:46:40;99429.22;;;13.11;34.39
70982;BME280;58640;51.320;9.456;2023-04-06T11:49:05;99408.44;;;13.11;32.23
70982;BME280;58640;51.320;9.456;2023-04-06T11:51:35;99411.66;;;12.86;34.15
70982;BME280;58640;51.320;9.456;2023-04-06T11:54:01;99402.69;;;12.64;34.49
70982;BME280;58640;51.320;9.456;2023-04-06T11:56:29;99406.81;;;12.81;33.83
70982;BME280;58640;51.320;9.456;2023-04-06T11:58:56;99408.19;;;12.56;34.37
70982;BME280;58640;51.320;9.456;2023-04-06T12:01:23;99412.84;;;12.48;34.15
70982;BME280;58640;51.320;9.456;2023-04-06T12:03:49;99405.09;;;12.59;32.74
70982;BME280;58640;51.320;9.456;2023-04-06T12:06:15;99404.59;;;12.49;32.00
70982;BME280;58640;51.320;9.456;2023-04-06T12:08:40;99400.19;;;12.48;32.92
70982;BME280;58640;51.320;9.456;2023-04-06T12:11:06;99401.50;;;12.67;31.80
70982;BME280;58640;51.320;9.456;2023-04-06T12:13:31;99392.50;;;12.31;33.84
70982;BME280;58640;51.320;9.456;2023-04-06T12:15:57;99393.91;;;12.27;34.42
70982;BME280;58640;51.320;9.456;2023-04-06T12:18:22;99394.75;;;12.27;34.21
70982;BME280;58640;51.320;9.456;2023-04-06T12:20:47;99392.78;;;12.21;33.58
70982;BME280;58640;51.320;9.456;2023-04-06T12:23:13;99393.44;;;12.23;33.78
70982;BME280;58640;51.320;9.456;2023-04-06T12:25:42;99382.66;;;12.38;33.74
70982;BME280;58640;51.320;9.456;2023-04-06T12:28:07;99385.63;;;12.28;34.26
70982;BME280;58640;51.320;9.456;2023-04-06T12:30:34;99392.13;;;12.19;34.17
70982;BME280;58640;51.320;9.456;2023-04-06T12:33:00;99384.97;;;12.26;33.75
70982;BME280;58640;51.320;9.456;2023-04-06T12:35:25;99384.16;;;12.11;33.88
70982;BME280;58640;51.320;9.456;2023-04-06T12:37:51;99389.56;;;11.82;35.98
70982;BME280;58640;51.320;9.456;2023-04-06T12:40:16;99384.34;;;12.10;36.00
70982;BME280;58640;51.320;9.456;2023-04-06T12:42:42;99388.63;;;12.19;33.95
70982;BME280;58640;51.320;9.456;2023-04-06T12:45:10;99379.31;;;12.36;32.68
70982;BME280;58640;51.320;9.456;2023-04-06T12:47:35;99380.72;;;12.03;33.75
70982;BME280;58640;51.320;9.456;2023-04-06T12:50:01;99382.84;;;12.07;34.47
70982;BME280;58640;51.320;9.456;2023-04-06T12:52:27;99371.78;;;12.02;32.83
70982;BME280;58640;51.320;9.456;2023-04-06T12:54:55;99369.66;;;12.12;32.97
70982;BME280;58640;51.320;9.456;2023-04-06T12:57:21;99353.28;;;12.28;33.49
70982;BME280;58640;51.320;9.456;2023-04-06T12:59:47;99383.81;;;12.00;32.75
70982;BME280;58640;51.320;9.456;2023-04-06T13:02:12;99373.22;;;11.98;32.68